sensor_id;sensor_type;location;lat;lon;timestamp;temperature;humidity
38265;DHT22;24062;47.480;8.768;2022-11-13T00:01:11;10.50;73.70
38265;DHT22;24062;47.480;8.768;2022-11-13T00:03:39;10.40;73.60
38265;DHT22;24062;47.480;8.768;2022-11-13T00:06:06;10.40;74.40
38265;DHT22;24062;47.480;8.768;2022-11-13T00:08:33;10.40;73.90
38265;DHT22;24062;47.480;8.768;2022-11-13T00:11:01;10.40;73.90
38265;DHT22;24062;47.480;8.768;2022-11-13T00:13:29;10.30;73.90
38265;DHT22;24062;47.480;8.768;2022-11-13T00:15:58;10.30;73.90
38265;DHT22;24062;47.480;8.768;2022-11-13T00:18:26;10.30;74.10
38265;DHT22;24062;47.480;8.768;2022-11-13T00:20:53;10.40;74.50
38265;DHT22;24062;47.480;8.768;2022-11-13T00:23:20;10.50;74.60
38265;DHT22;24062;47.480;8.768;2022-11-13T00:25:47;10.50;74.50
38265;DHT22;24062;47.480;8.768;2022-11-13T00:28:14;10.50;74.40
38265;DHT22;24062;47.480;8.768;2022-11-13T00:30:41;10.50;74.10
38265;DHT22;24062;47.480;8.768;2022-11-13T00:33:09;10.50;73.90
38265;DHT22;24062;47.480;8.768;2022-11-13T00:35:36;10.40;74.10
38265;DHT22;24062;47.480;8.768;2022-11-13T00:38:03;10.40;74.50
38265;DHT22;24062;47.480;8.768;2022-11-13T00:40:30;10.30;74.30
38265;DHT22;24062;47.480;8.768;2022-11-13T00:42:57;10.30;74.20
38265;DHT22;24062;47.480;8.768;2022-11-13T00:45:23;10.30;74.30
38265;DHT22;24062;47.480;8.768;2022-11-13T00:47:50;10.30;74.50
38265;DHT22;24062;47.480;8.768;2022-11-13T00:50:19;10.30;74.50
38265;DHT22;24062;47.480;8.768;2022-11-13T00:52:45;10.30;74.40
38265;DHT22;24062;47.480;8.768;2022-11-13T00:55:12;10.30;74.50
38265;DHT22;24062;47.480;8.768;2022-11-13T00:57:39;10.20;74.30
38265;DHT22;24062;47.480;8.768;2022-11-13T01:00:08;10.20;74.40
38265;DHT22;24062;47.480;8.768;2022-11-13T01:02:35;10.20;74.50
38265;DHT22;24062;47.480;8.768;2022-11-13T01:05:02;10.20;74.70
38265;DHT22;24062;47.480;8.768;2022-11-13T01:07:31;10.20;74.70
38265;DHT22;24062;47.480;8.768;2022-11-13T01:09:57;10.20;74.70
38265;DHT22;24062;47.480;8.768;2022-11-13T01:12:25;10.40;75.00
38265;DHT22;24062;47.480;8.768;2022-11-13T01:14:52;10.20;74.50
38265;DHT22;24062;47.480;8.768;2022-11-13T01:17:19;10.20;74.50
38265;DHT22;24062;47.480;8.768;2022-11-13T01:19:46;10.20;74.60
38265;DHT22;24062;47.480;8.768;2022-11-13T01:22:13;10.10;74.60
38265;DHT22;24062;47.480;8.768;2022-11-13T01:24:41;10.10;74.70
38265;DHT22;24062;47.480;8.768;2022-11-13T01:27:08;10.10;74.90
38265;DHT22;24062;47.480;8.768;2022-11-13T01:29:38;10.20;75.00
38265;DHT22;24062;47.480;8.768;2022-11-13T01:32:06;10.20;75.10
38265;DHT22;24062;47.480;8.768;2022-11-13T01:34:33;10.30;75.20
38265;DHT22;24062;47.480;8.768;2022-11-13T01:37:00;10.40;75.30
38265;DHT22;24062;47.480;8.768;2022-11-13T01:39:27;10.40;75.10
38265;DHT22;24062;47.480;8.768;2022-11-13T01:41:55;10.50;75.30
38265;DHT22;24062;47.480;8.768;2022-11-13T01:44:22;10.50;75.20
38265;DHT22;24062;47.480;8.768;2022-11-13T01:46:51;10.50;75.00
38265;DHT22;24062;47.480;8.768;2022-11-13T01:49:28;10.50;74.90
38265;DHT22;24062;47.480;8.768;2022-11-13T01:51:58;10.40;74.90
38265;DHT22;24062;47.480;8.768;2022-11-13T01:54:28;10.50;75.00
38265;DHT22;24062;47.480;8.768;2022-11-13T01:56:58;10.60;75.00
38265;DHT22;24062;47.480;8.768;2022-11-13T01:59:29;10.50;75.00
38265;DHT22;24062;47.480;8.768;2022-11-13T02:01:57;10.50;74.90
38265;DHT22;24062;47.480;8.768;2022-11-13T02:04:25;10.50;74.80
38265;DHT22;24062;47.480;8.768;2022-11-13T02:06:56;10.40;74.60
38265;DHT22;24062;47.480;8.768;2022-11-13T02:09:26;10.40;75.00
38265;DHT22;24062;47.480;8.768;2022-11-13T02:11:54;10.40;75.00
38265;DHT22;24062;47.480;8.768;2022-11-13T02:14:25;10.40;75.00
38265;DHT22;24062;47.480;8.768;2022-11-13T02:16:55;10.50;75.30
38265;DHT22;24062;47.480;8.768;2022-11-13T02:19:27;10.50;75.10
38265;DHT22;24062;47.480;8.768;2022-11-13T02:22:00;10.50;74.80
38265;DHT22;24062;47.480;8.768;2022-11-13T02:24:32;10.40;74.60
38265;DHT22;24062;47.480;8.768;2022-11-13T02:27:03;10.40;74.60
38265;DHT22;24062;47.480;8.768;2022-11-13T02:29:30;10.40;74.70
38265;DHT22;24062;47.480;8.768;2022-11-13T02:31:57;10.30;74.90
38265;DHT22;24062;47.480;8.768;2022-11-13T02:34:24;10.30;74.50
38265;DHT22;24062;47.480;8.768;2022-11-13T02:36:51;10.20;74.50
38265;DHT22;24062;47.480;8.768;2022-11-13T02:39:18;10.20;74.50
38265;DHT22;24062;47.480;8.768;2022-11-13T02:41:46;10.10;74.50
38265;DHT22;24062;47.480;8.768;2022-11-13T02:44:13;10.10;74.30
38265;DHT22;24062;47.480;8.768;2022-11-13T02:46:40;10.00;74.20
38265;DHT22;24062;47.480;8.768;2022-11-13T02:49:07;10.00;74.60
38265;DHT22;24062;47.480;8.768;2022-11-13T02:51:34;10.10;74.90
38265;DHT22;24062;47.480;8.768;2022-11-13T02:54:01;10.10;75.00
38265;DHT22;24062;47.480;8.768;2022-11-13T02:56:28;10.10;74.80
38265;DHT22;24062;47.480;8.768;2022-11-13T02:58:56;10.10;74.60
38265;DHT22;24062;47.480;8.768;2022-11-13T03:01:23;10.20;74.90
38265;DHT22;24062;47.480;8.768;2022-11-13T03:03:51;10.10;74.50
38265;DHT22;24062;47.480;8.768;2022-11-13T03:06:18;10.10;74.30
38265;DHT22;24062;47.480;8.768;2022-11-13T03:08:45;10.00;74.60
38265;DHT22;24062;47.480;8.768;2022-11-13T03:11:12;10.10;75.00
38265;DHT22;24062;47.480;8.768;2022-11-13T03:13:39;10.10;75.00
38265;DHT22;24062;47.480;8.768;2022-11-13T03:16:09;10.20;75.20
38265;DHT22;24062;47.480;8.768;2022-11-13T03:18:37;10.30;75.50
38265;DHT22;24062;47.480;8.768;2022-11-13T03:21:08;10.30;75.40
38265;DHT22;24062;47.480;8.768;2022-11-13T03:23:36;10.30;75.20
38265;DHT22;24062;47.480;8.768;2022-11-13T03:26:04;10.40;75.20
38265;DHT22;24062;47.480;8.768;2022-11-13T03:28:31;10.40;75.20
38265;DHT22;24062;47.480;8.768;2022-11-13T03:30:59;10.40;75.20
38265;DHT22;24062;47.480;8.768;2022-11-13T03:33:27;10.40;75.30
38265;DHT22;24062;47.480;8.768;2022-11-13T03:35:55;10.40;75.40
38265;DHT22;24062;47.480;8.768;2022-11-13T03:38:22;10.40;75.30
38265;DHT22;24062;47.480;8.768;2022-11-13T03:40:49;10.40;75.40
38265;DHT22;24062;47.480;8.768;2022-11-13T03:43:17;10.40;75.30
38265;DHT22;24062;47.480;8.768;2022-11-13T03:45:44;10.30;75.30
38265;DHT22;24062;47.480;8.768;2022-11-13T03:48:11;10.40;75.40
38265;DHT22;24062;47.480;8.768;2022-11-13T03:50:41;10.30;76.00
38265;DHT22;24062;47.480;8.768;2022-11-13T03:53:09;10.20;75.00
38265;DHT22;24062;47.480;8.768;2022-11-13T03:55:36;10.10;75.00
38265;DHT22;24062;47.480;8.768;2022-11-13T03:58:03;10.10;75.40
38265;DHT22;24062;47.480;8.768;2022-11-13T04:00:30;10.10;75.30
38265;DHT22;24062;47.480;8.768;2022-11-13T04:02:57;10.00;75.00
38265;DHT22;24062;47.480;8.768;2022-11-13T04:05:24;10.00;75.30
38265;DHT22;24062;47.480;8.768;2022-11-13T04:07:52;10.00;75.40
38265;DHT22;24062;47.480;8.768;2022-11-13T04:10:19;9.90;76.30
38265;DHT22;24062;47.480;8.768;2022-11-13T04:12:46;9.90;76.10
38265;DHT22;24062;47.480;8.768;2022-11-13T04:15:13;9.80;76.20
38265;DHT22;24062;47.480;8.768;2022-11-13T04:17:40;9.70;76.30
38265;DHT22;24062;47.480;8.768;2022-11-13T04:20:08;9.60;76.50
38265;DHT22;24062;47.480;8.768;2022-11-13T04:22:35;9.60;76.50
38265;DHT22;24062;47.480;8.768;2022-11-13T04:25:04;9.40;76.40
38265;DHT22;24062;47.480;8.768;2022-11-13T04:27:31;9.30;76.80
38265;DHT22;24062;47.480;8.768;2022-11-13T04:29:58;9.20;76.90
38265;DHT22;24062;47.480;8.768;2022-11-13T04:32:25;9.20;77.20
38265;DHT22;24062;47.480;8.768;2022-11-13T04:34:52;9.10;77.40
38265;DHT22;24062;47.480;8.768;2022-11-13T04:37:19;9.10;77.90
38265;DHT22;24062;47.480;8.768;2022-11-13T04:39:46;9.10;77.90
38265;DHT22;24062;47.480;8.768;2022-11-13T04:42:14;9.10;78.00
38265;DHT22;24062;47.480;8.768;2022-11-13T04:44:59;9.10;78.00
38265;DHT22;24062;47.480;8.768;2022-11-13T04:47:26;9.10;78.10
38265;DHT22;24062;47.480;8.768;2022-11-13T04:49:53;9.10;78.20
38265;DHT22;24062;47.480;8.768;2022-11-13T04:52:19;9.10;78.30
38265;DHT22;24062;47.480;8.768;2022-11-13T04:54:46;9.00;78.10
38265;DHT22;24062;47.480;8.768;2022-11-13T04:57:15;8.90;78.10
38265;DHT22;24062;47.480;8.768;2022-11-13T04:59:41;8.90;78.40
38265;DHT22;24062;47.480;8.768;2022-11-13T05:02:08;8.80;78.60
38265;DHT22;24062;47.480;8.768;2022-11-13T05:04:35;8.90;78.80
38265;DHT22;24062;47.480;8.768;2022-11-13T05:07:02;8.90;78.80
38265;DHT22;24062;47.480;8.768;2022-11-13T05:09:29;8.80;78.30
38265;DHT22;24062;47.480;8.768;2022-11-13T05:11:56;8.70;78.40
38265;DHT22;24062;47.480;8.768;2022-11-13T05:14:24;8.60;78.60
38265;DHT22;24062;47.480;8.768;2022-11-13T05:16:51;8.60;79.00
38265;DHT22;24062;47.480;8.768;2022-11-13T05:19:18;8.50;79.10
38265;DHT22;24062;47.480;8.768;2022-11-13T05:21:45;8.40;79.20
38265;DHT22;24062;47.480;8.768;2022-11-13T05:24:12;8.40;79.40
38265;DHT22;24062;47.480;8.768;2022-11-13T05:26:39;8.50;80.30
38265;DHT22;24062;47.480;8.768;2022-11-13T05:29:06;8.50;79.40
38265;DHT22;24062;47.480;8.768;2022-11-13T05:31:34;8.60;79.60
38265;DHT22;24062;47.480;8.768;2022-11-13T05:34:02;8.50;79.50
38265;DHT22;24062;47.480;8.768;2022-11-13T05:36:30;8.40;79.60
38265;DHT22;24062;47.480;8.768;2022-11-13T05:38:57;8.30;79.70
38265;DHT22;24062;47.480;8.768;2022-11-13T05:41:24;8.30;80.00
38265;DHT22;24062;47.480;8.768;2022-11-13T05:43:51;8.20;79.70
38265;DHT22;24062;47.480;8.768;2022-11-13T05:46:20;8.10;80.00
38265;DHT22;24062;47.480;8.768;2022-11-13T05:48:53;8.10;80.30
38265;DHT22;24062;47.480;8.768;2022-11-13T05:51:22;8.20;80.50
38265;DHT22;24062;47.480;8.768;2022-11-13T05:53:50;8.00;80.10
38265;DHT22;24062;47.480;8.768;2022-11-13T05:56:19;8.00;80.50
38265;DHT22;24062;47.480;8.768;2022-11-13T05:58:47;8.00;80.70
38265;DHT22;24062;47.480;8.768;2022-11-13T06:01:16;8.00;80.80
38265;DHT22;24062;47.480;8.768;2022-11-13T06:03:43;8.00;80.60
38265;DHT22;24062;47.480;8.768;2022-11-13T06:06:13;8.00;80.60
38265;DHT22;24062;47.480;8.768;2022-11-13T06:08:40;8.00;80.60
38265;DHT22;24062;47.480;8.768;2022-11-13T06:11:09;8.00;80.80
38265;DHT22;24062;47.480;8.768;2022-11-13T06:13:37;8.00;80.80
38265;DHT22;24062;47.480;8.768;2022-11-13T06:16:06;8.00;80.90
38265;DHT22;24062;47.480;8.768;2022-11-13T06:18:34;8.10;81.20
38265;DHT22;24062;47.480;8.768;2022-11-13T06:21:02;8.20;81.20
38265;DHT22;24062;47.480;8.768;2022-11-13T06:23:31;8.30;81.00
38265;DHT22;24062;47.480;8.768;2022-11-13T06:26:00;8.30;80.70
38265;DHT22;24062;47.480;8.768;2022-11-13T06:28:27;8.20;80.50
38265;DHT22;24062;47.480;8.768;2022-11-13T06:30:54;8.20;80.70
38265;DHT22;24062;47.480;8.768;2022-11-13T06:33:21;8.20;80.90
38265;DHT22;24062;47.480;8.768;2022-11-13T06:35:47;8.20;80.80
38265;DHT22;24062;47.480;8.768;2022-11-13T06:38:14;8.20;80.60
38265;DHT22;24062;47.480;8.768;2022-11-13T06:40:42;8.10;80.70
38265;DHT22;24062;47.480;8.768;2022-11-13T06:43:09;8.10;81.00
38265;DHT22;24062;47.480;8.768;2022-11-13T06:45:36;8.10;81.40
38265;DHT22;24062;47.480;8.768;2022-11-13T06:48:03;8.10;81.60
38265;DHT22;24062;47.480;8.768;2022-11-13T06:50:30;8.20;81.40
38265;DHT22;24062;47.480;8.768;2022-11-13T06:52:57;8.20;81.40
38265;DHT22;24062;47.480;8.768;2022-11-13T06:55:24;8.30;81.30
38265;DHT22;24062;47.480;8.768;2022-11-13T06:57:53;8.30;81.30
38265;DHT22;24062;47.480;8.768;2022-11-13T07:00:20;8.30;81.30
38265;DHT22;24062;47.480;8.768;2022-11-13T07:02:47;8.30;81.30
38265;DHT22;24062;47.480;8.768;2022-11-13T07:05:15;8.40;81.40
38265;DHT22;24062;47.480;8.768;2022-11-13T07:07:41;8.40;81.40
38265;DHT22;24062;47.480;8.768;2022-11-13T07:10:09;8.40;81.20
38265;DHT22;24062;47.480;8.768;2022-11-13T07:12:35;8.40;80.80
38265;DHT22;24062;47.480;8.768;2022-11-13T07:15:05;8.40;81.10
38265;DHT22;24062;47.480;8.768;2022-11-13T07:17:32;8.40;81.20
38265;DHT22;24062;47.480;8.768;2022-11-13T07:19:58;8.30;81.00
38265;DHT22;24062;47.480;8.768;2022-11-13T07:22:27;8.40;81.40
38265;DHT22;24062;47.480;8.768;2022-11-13T07:24:54;8.40;81.20
38265;DHT22;24062;47.480;8.768;2022-11-13T07:27:21;8.50;82.20
38265;DHT22;24062;47.480;8.768;2022-11-13T07:29:48;8.50;81.30
38265;DHT22;24062;47.480;8.768;2022-11-13T07:32:16;8.40;81.00
38265;DHT22;24062;47.480;8.768;2022-11-13T07:34:43;8.40;81.00
38265;DHT22;24062;47.480;8.768;2022-11-13T07:37:09;8.40;81.10
38265;DHT22;24062;47.480;8.768;2022-11-13T07:39:36;8.20;81.20
38265;DHT22;24062;47.480;8.768;2022-11-13T07:42:03;8.20;81.60
38265;DHT22;24062;47.480;8.768;2022-11-13T07:44:30;8.20;82.00
38265;DHT22;24062;47.480;8.768;2022-11-13T07:46:57;8.20;82.20
38265;DHT22;24062;47.480;8.768;2022-11-13T07:49:26;8.20;82.40
38265;DHT22;24062;47.480;8.768;2022-11-13T07:51:53;8.20;82.50
38265;DHT22;24062;47.480;8.768;2022-11-13T07:54:20;8.20;82.60
38265;DHT22;24062;47.480;8.768;2022-11-13T07:56:46;8.30;82.70
38265;DHT22;24062;47.480;8.768;2022-11-13T07:59:13;8.40;82.70
38265;DHT22;24062;47.480;8.768;2022-11-13T08:01:40;8.40;82.50
38265;DHT22;24062;47.480;8.768;2022-11-13T08:04:07;8.50;82.50
38265;DHT22;24062;47.480;8.768;2022-11-13T08:06:37;8.40;82.50
38265;DHT22;24062;47.480;8.768;2022-11-13T08:09:04;8.50;82.80
38265;DHT22;24062;47.480;8.768;2022-11-13T08:11:31;8.60;82.80
38265;DHT22;24062;47.480;8.768;2022-11-13T08:13:58;8.70;82.70
38265;DHT22;24062;47.480;8.768;2022-11-13T08:16:25;8.80;82.60
38265;DHT22;24062;47.480;8.768;2022-11-13T08:18:52;8.90;82.20
38265;DHT22;24062;47.480;8.768;2022-11-13T08:21:19;9.00;82.10
38265;DHT22;24062;47.480;8.768;2022-11-13T08:23:48;8.90;82.40
38265;DHT22;24062;47.480;8.768;2022-11-13T08:26:16;8.80;81.70
38265;DHT22;24062;47.480;8.768;2022-11-13T08:28:43;8.90;82.20
38265;DHT22;24062;47.480;8.768;2022-11-13T08:31:12;8.90;81.70
38265;DHT22;24062;47.480;8.768;2022-11-13T08:33:40;8.90;81.90
38265;DHT22;24062;47.480;8.768;2022-11-13T08:36:08;8.90;82.00
38265;DHT22;24062;47.480;8.768;2022-11-13T08:38:35;8.90;81.90
38265;DHT22;24062;47.480;8.768;2022-11-13T08:41:05;8.90;82.10
38265;DHT22;24062;47.480;8.768;2022-11-13T08:43:32;9.00;82.30
38265;DHT22;24062;47.480;8.768;2022-11-13T08:45:59;8.90;81.80
38265;DHT22;24062;47.480;8.768;2022-11-13T08:48:25;8.90;82.00
38265;DHT22;24062;47.480;8.768;2022-11-13T08:50:53;8.90;82.30
38265;DHT22;24062;47.480;8.768;2022-11-13T08:53:20;9.00;82.20
38265;DHT22;24062;47.480;8.768;2022-11-13T08:55:47;8.70;81.50
38265;DHT22;24062;47.480;8.768;2022-11-13T08:58:16;8.70;82.30
38265;DHT22;24062;47.480;8.768;2022-11-13T09:00:43;8.80;82.60
38265;DHT22;24062;47.480;8.768;2022-11-13T09:03:10;8.80;82.60
38265;DHT22;24062;47.480;8.768;2022-11-13T09:05:37;8.80;82.70
38265;DHT22;24062;47.480;8.768;2022-11-13T09:08:05;8.80;82.70
38265;DHT22;24062;47.480;8.768;2022-11-13T09:10:32;8.80;82.60
38265;DHT22;24062;47.480;8.768;2022-11-13T09:13:00;8.90;82.70
38265;DHT22;24062;47.480;8.768;2022-11-13T09:15:29;8.90;83.10
38265;DHT22;24062;47.480;8.768;2022-11-13T09:17:57;9.00;83.30
38265;DHT22;24062;47.480;8.768;2022-11-13T09:20:24;9.10;83.10
38265;DHT22;24062;47.480;8.768;2022-11-13T09:22:55;9.20;83.00
38265;DHT22;24062;47.480;8.768;2022-11-13T09:25:23;9.30;83.20
38265;DHT22;24062;47.480;8.768;2022-11-13T09:27:53;9.40;83.10
38265;DHT22;24062;47.480;8.768;2022-11-13T09:30:20;9.60;82.80
38265;DHT22;24062;47.480;8.768;2022-11-13T09:32:52;9.50;82.30
38265;DHT22;24062;47.480;8.768;2022-11-13T09:35:19;9.50;82.30
38265;DHT22;24062;47.480;8.768;2022-11-13T09:37:59;9.40;82.10
38265;DHT22;24062;47.480;8.768;2022-11-13T09:40:29;9.40;82.00
38265;DHT22;24062;47.480;8.768;2022-11-13T09:42:59;9.20;81.30
38265;DHT22;24062;47.480;8.768;2022-11-13T09:45:27;9.10;81.80
38265;DHT22;24062;47.480;8.768;2022-11-13T09:48:02;9.10;82.30
38265;DHT22;24062;47.480;8.768;2022-11-13T09:50:32;9.20;83.00
38265;DHT22;24062;47.480;8.768;2022-11-13T09:52:59;9.30;82.90
38265;DHT22;24062;47.480;8.768;2022-11-13T09:55:31;9.40;82.90
38265;DHT22;24062;47.480;8.768;2022-11-13T09:58:03;9.60;82.90
38265;DHT22;24062;47.480;8.768;2022-11-13T10:00:33;9.70;83.70
38265;DHT22;24062;47.480;8.768;2022-11-13T10:03:20;9.90;83.50
38265;DHT22;24062;47.480;8.768;2022-11-13T10:05:55;10.00;81.40
38265;DHT22;24062;47.480;8.768;2022-11-13T10:08:28;10.10;81.20
38265;DHT22;24062;47.480;8.768;2022-11-13T10:11:04;10.20;81.30
38265;DHT22;24062;47.480;8.768;2022-11-13T10:13:39;10.30;81.10
38265;DHT22;24062;47.480;8.768;2022-11-13T10:16:15;10.40;81.30
38265;DHT22;24062;47.480;8.768;2022-11-13T10:18:47;10.50;81.40
38265;DHT22;24062;47.480;8.768;2022-11-13T10:21:23;10.60;81.50
38265;DHT22;24062;47.480;8.768;2022-11-13T10:23:55;10.80;81.50
38265;DHT22;24062;47.480;8.768;2022-11-13T10:26:26;11.00;81.50
38265;DHT22;24062;47.480;8.768;2022-11-13T10:28:59;11.10;81.20
38265;DHT22;24062;47.480;8.768;2022-11-13T10:31:27;11.20;80.90
38265;DHT22;24062;47.480;8.768;2022-11-13T10:33:56;11.30;80.80
38265;DHT22;24062;47.480;8.768;2022-11-13T10:36:31;11.30;80.30
38265;DHT22;24062;47.480;8.768;2022-11-13T10:39:04;11.40;80.40
38265;DHT22;24062;47.480;8.768;2022-11-13T10:41:31;11.40;80.20
38265;DHT22;24062;47.480;8.768;2022-11-13T10:44:05;11.40;80.00
38265;DHT22;24062;47.480;8.768;2022-11-13T10:46:32;11.30;79.10
38265;DHT22;24062;47.480;8.768;2022-11-13T10:49:12;11.20;78.80
38265;DHT22;24062;47.480;8.768;2022-11-13T10:51:39;11.10;79.20
38265;DHT22;24062;47.480;8.768;2022-11-13T10:54:22;11.00;79.30
38265;DHT22;24062;47.480;8.768;2022-11-13T10:56:56;11.10;79.90
38265;DHT22;24062;47.480;8.768;2022-11-13T10:59:24;11.20;80.80
38265;DHT22;24062;47.480;8.768;2022-11-13T11:01:51;11.30;80.00
38265;DHT22;24062;47.480;8.768;2022-11-13T11:04:22;11.30;79.70
38265;DHT22;24062;47.480;8.768;2022-11-13T11:06:52;11.30;79.40
38265;DHT22;24062;47.480;8.768;2022-11-13T11:09:22;11.30;79.60
38265;DHT22;24062;47.480;8.768;2022-11-13T11:12:00;11.40;79.40
38265;DHT22;24062;47.480;8.768;2022-11-13T11:15:13;11.30;79.20
38265;DHT22;24062;47.480;8.768;2022-11-13T11:17:45;11.40;79.00
38265;DHT22;24062;47.480;8.768;2022-11-13T11:20:25;11.40;79.30
38265;DHT22;24062;47.480;8.768;2022-11-13T11:22:59;11.40;79.40
38265;DHT22;24062;47.480;8.768;2022-11-13T11:25:33;11.50;79.20
38265;DHT22;24062;47.480;8.768;2022-11-13T11:28:06;11.60;79.10
38265;DHT22;24062;47.480;8.768;2022-11-13T11:30:39;11.50;78.40
38265;DHT22;24062;47.480;8.768;2022-11-13T11:33:12;11.40;78.10
38265;DHT22;24062;47.480;8.768;2022-11-13T11:35:45;11.30;78.00
38265;DHT22;24062;47.480;8.768;2022-11-13T11:38:17;11.40;78.50
38265;DHT22;24062;47.480;8.768;2022-11-13T11:40:48;11.40;78.80
38265;DHT22;24062;47.480;8.768;2022-11-13T11:43:19;11.50;78.90
38265;DHT22;24062;47.480;8.768;2022-11-13T11:45:48;11.50;78.60
38265;DHT22;24062;47.480;8.768;2022-11-13T11:48:17;11.60;78.50
38265;DHT22;24062;47.480;8.768;2022-11-13T11:50:50;11.60;78.30
38265;DHT22;24062;47.480;8.768;2022-11-13T11:53:26;11.70;78.00
38265;DHT22;24062;47.480;8.768;2022-11-13T11:56:15;11.60;76.80
38265;DHT22;24062;47.480;8.768;2022-11-13T11:59:13;11.50;77.30
38265;DHT22;24062;47.480;8.768;2022-11-13T12:04:47;11.40;77.20
38265;DHT22;24062;47.480;8.768;2022-11-13T12:07:31;11.40;77.40
38265;DHT22;24062;47.480;8.768;2022-11-13T12:10:06;11.60;77.60
38265;DHT22;24062;47.480;8.768;2022-11-13T12:12:46;11.60;77.00
38265;DHT22;24062;47.480;8.768;2022-11-13T12:15:21;11.60;77.20
38265;DHT22;24062;47.480;8.768;2022-11-13T12:18:00;11.50;76.70
38265;DHT22;24062;47.480;8.768;2022-11-13T12:20:37;11.50;76.80
38265;DHT22;24062;47.480;8.768;2022-11-13T12:23:19;11.50;76.90
38265;DHT22;24062;47.480;8.768;2022-11-13T12:25:51;11.70;77.60
38265;DHT22;24062;47.480;8.768;2022-11-13T12:28:23;11.60;77.00
38265;DHT22;24062;47.480;8.768;2022-11-13T12:31:00;11.60;77.00
38265;DHT22;24062;47.480;8.768;2022-11-13T12:33:36;11.60;76.60
38265;DHT22;24062;47.480;8.768;2022-11-13T12:36:08;11.60;77.50
38265;DHT22;24062;47.480;8.768;2022-11-13T12:38:43;11.60;77.50
38265;DHT22;24062;47.480;8.768;2022-11-13T12:41:17;11.60;77.00
38265;DHT22;24062;47.480;8.768;2022-11-13T12:44:08;11.60;76.90
38265;DHT22;24062;47.480;8.768;2022-11-13T12:46:41;11.70;76.90
38265;DHT22;24062;47.480;8.768;2022-11-13T12:49:26;11.80;77.00
38265;DHT22;24062;47.480;8.768;2022-11-13T12:51:54;11.80;76.80
38265;DHT22;24062;47.480;8.768;2022-11-13T12:54:28;11.80;76.30
38265;DHT22;24062;47.480;8.768;2022-11-13T12:57:06;11.80;75.50
38265;DHT22;24062;47.480;8.768;2022-11-13T12:59:39;11.60;75.30
38265;DHT22;24062;47.480;8.768;2022-11-13T13:02:26;11.60;76.50
38265;DHT22;24062;47.480;8.768;2022-11-13T13:05:12;11.60;75.90
38265;DHT22;24062;47.480;8.768;2022-11-13T13:10:49;11.40;75.40
38265;DHT22;24062;47.480;8.768;2022-11-13T13:13:23;11.40;75.70
38265;DHT22;24062;47.480;8.768;2022-11-13T13:15:54;11.50;75.40
38265;DHT22;24062;47.480;8.768;2022-11-13T13:18:27;11.30;74.90
38265;DHT22;24062;47.480;8.768;2022-11-13T13:21:00;11.20;75.20
38265;DHT22;24062;47.480;8.768;2022-11-13T13:23:30;11.20;75.40
38265;DHT22;24062;47.480;8.768;2022-11-13T13:26:05;11.20;75.80
38265;DHT22;24062;47.480;8.768;2022-11-13T13:28:32;11.20;75.80
38265;DHT22;24062;47.480;8.768;2022-11-13T13:31:05;11.30;76.20
38265;DHT22;24062;47.480;8.768;2022-11-13T13:33:42;11.50;76.30
38265;DHT22;24062;47.480;8.768;2022-11-13T13:36:18;11.60;76.00
38265;DHT22;24062;47.480;8.768;2022-11-13T13:38:49;11.60;75.70
38265;DHT22;24062;47.480;8.768;2022-11-13T13:41:29;11.60;75.50
38265;DHT22;24062;47.480;8.768;2022-11-13T13:44:13;11.60;75.40
38265;DHT22;24062;47.480;8.768;2022-11-13T13:46:43;11.60;75.60
38265;DHT22;24062;47.480;8.768;2022-11-13T13:49:14;11.60;75.50
38265;DHT22;24062;47.480;8.768;2022-11-13T13:51:43;11.60;75.50
38265;DHT22;24062;47.480;8.768;2022-11-13T13:54:15;11.60;75.20
38265;DHT22;24062;47.480;8.768;2022-11-13T13:56:45;11.50;74.60
38265;DHT22;24062;47.480;8.768;2022-11-13T13:59:14;11.40;74.50
38265;DHT22;24062;47.480;8.768;2022-11-13T14:01:52;11.30;74.90
38265;DHT22;24062;47.480;8.768;2022-11-13T14:04:21;11.10;73.90
38265;DHT22;24062;47.480;8.768;2022-11-13T14:06:49;11.00;74.40
38265;DHT22;24062;47.480;8.768;2022-11-13T14:09:18;11.00;74.90
38265;DHT22;24062;47.480;8.768;2022-11-13T14:11:47;11.00;74.40
38265;DHT22;24062;47.480;8.768;2022-11-13T14:14:18;10.80;74.10
38265;DHT22;24062;47.480;8.768;2022-11-13T14:16:47;10.70;73.90
38265;DHT22;24062;47.480;8.768;2022-11-13T14:19:14;10.60;74.40
38265;DHT22;24062;47.480;8.768;2022-11-13T14:21:42;10.70;74.60
38265;DHT22;24062;47.480;8.768;2022-11-13T14:24:16;10.70;74.60
38265;DHT22;24062;47.480;8.768;2022-11-13T14:26:47;10.60;74.50
38265;DHT22;24062;47.480;8.768;2022-11-13T14:29:36;10.60;74.20
38265;DHT22;24062;47.480;8.768;2022-11-13T14:32:09;10.50;74.60
38265;DHT22;24062;47.480;8.768;2022-11-13T14:34:42;10.50;74.40
38265;DHT22;24062;47.480;8.768;2022-11-13T14:37:20;10.50;74.30
38265;DHT22;24062;47.480;8.768;2022-11-13T14:39:49;10.50;74.50
38265;DHT22;24062;47.480;8.768;2022-11-13T14:42:20;10.40;74.20
38265;DHT22;24062;47.480;8.768;2022-11-13T14:44:48;10.40;75.10
38265;DHT22;24062;47.480;8.768;2022-11-13T14:47:24;10.50;74.60
38265;DHT22;24062;47.480;8.768;2022-11-13T14:49:51;10.50;74.50
38265;DHT22;24062;47.480;8.768;2022-11-13T14:52:26;10.60;74.80
38265;DHT22;24062;47.480;8.768;2022-11-13T14:55:01;10.60;74.60
38265;DHT22;24062;47.480;8.768;2022-11-13T14:57:30;10.70;74.70
38265;DHT22;24062;47.480;8.768;2022-11-13T15:00:09;10.80;74.90
38265;DHT22;24062;47.480;8.768;2022-11-13T15:02:36;10.80;75.40
38265;DHT22;24062;47.480;8.768;2022-11-13T15:05:03;10.90;74.40
38265;DHT22;24062;47.480;8.768;2022-11-13T15:07:32;10.90;74.40
38265;DHT22;24062;47.480;8.768;2022-11-13T15:09:59;10.90;74.40
38265;DHT22;24062;47.480;8.768;2022-11-13T15:12:27;11.00;74.10
38265;DHT22;24062;47.480;8.768;2022-11-13T15:14:55;10.70;73.50
38265;DHT22;24062;47.480;8.768;2022-11-13T15:17:22;10.60;73.70
38265;DHT22;24062;47.480;8.768;2022-11-13T15:19:51;10.60;73.80
38265;DHT22;24062;47.480;8.768;2022-11-13T15:22:19;10.50;73.70
38265;DHT22;24062;47.480;8.768;2022-11-13T15:24:46;10.60;74.60
38265;DHT22;24062;47.480;8.768;2022-11-13T15:27:14;10.60;74.50
38265;DHT22;24062;47.480;8.768;2022-11-13T15:29:41;10.70;74.50
38265;DHT22;24062;47.480;8.768;2022-11-13T15:32:11;10.70;74.90
38265;DHT22;24062;47.480;8.768;2022-11-13T15:34:38;10.80;74.90
38265;DHT22;24062;47.480;8.768;2022-11-13T15:37:10;10.80;74.10
38265;DHT22;24062;47.480;8.768;2022-11-13T15:39:37;10.70;73.70
38265;DHT22;24062;47.480;8.768;2022-11-13T15:42:10;10.60;73.30
38265;DHT22;24062;47.480;8.768;2022-11-13T15:44:38;10.50;73.50
38265;DHT22;24062;47.480;8.768;2022-11-13T15:47:22;10.40;73.20
38265;DHT22;24062;47.480;8.768;2022-11-13T15:49:50;10.30;73.80
38265;DHT22;24062;47.480;8.768;2022-11-13T15:52:17;10.40;74.10
38265;DHT22;24062;47.480;8.768;2022-11-13T15:54:45;10.30;73.70
38265;DHT22;24062;47.480;8.768;2022-11-13T15:57:17;10.30;73.70
38265;DHT22;24062;47.480;8.768;2022-11-13T15:59:44;10.30;74.10